createdAt,value
2023-02-08T00:01:25.205Z,18.30
2023-02-08T00:03:53.959Z,18.60
2023-02-08T00:06:22.269Z,15.60
2023-02-08T00:08:51.244Z,17.30
2023-02-08T00:11:19.562Z,18.10
2023-02-08T00:13:48.201Z,22.20
2023-02-08T00:16:16.624Z,24.40
2023-02-08T00:18:45.366Z,23.70
2023-02-08T00:21:15.935Z,22.40
2023-02-08T00:23:46.652Z,22.50
2023-02-08T00:26:15.169Z,19.70
2023-02-08T00:28:44.444Z,18.50
2023-02-08T00:31:12.988Z,20.10
2023-02-08T00:33:42.815Z,21.10
2023-02-08T00:36:11.496Z,20.20
2023-02-08T00:38:45.870Z,19.00
2023-02-08T00:41:14.528Z,22.50
2023-02-08T00:43:45.630Z,21.20
2023-02-08T00:46:15.577Z,22.20
2023-02-08T00:48:47.490Z,22.90
2023-02-08T00:51:16.066Z,18.30
2023-02-08T00:53:45.571Z,16.50
2023-02-08T00:56:14.740Z,17.00
2023-02-08T00:58:44.342Z,16.90
2023-02-08T01:01:12.893Z,20.20
2023-02-08T01:03:42.080Z,20.20
2023-02-08T01:06:18.067Z,18.90
2023-02-08T01:08:47.067Z,18.90
2023-02-08T01:11:22.582Z,22.30
2023-02-08T01:13:53.403Z,19.10
2023-02-08T01:16:25.425Z,21.90
2023-02-08T01:18:55.747Z,19.40
2023-02-08T01:21:27.658Z,15.90
2023-02-08T01:23:56.179Z,19.40
2023-02-08T01:26:24.876Z,17.20
2023-02-08T01:28:53.846Z,22.90
2023-02-08T01:31:24.992Z,17.60
2023-02-08T01:33:53.832Z,19.10
2023-02-08T01:36:22.873Z,18.00
2023-02-08T01:38:51.658Z,13.40
2023-02-08T01:41:29.490Z,13.10
2023-02-08T01:44:12.696Z,13.00
2023-02-08T01:46:51.806Z,11.60
2023-02-08T01:49:23.014Z,13.40
2023-02-08T01:52:12.628Z,12.50
2023-02-08T01:54:45.115Z,11.60
2023-02-08T01:57:13.496Z,13.00
2023-02-08T01:59:50.628Z,13.00
2023-02-08T02:02:21.150Z,13.80
2023-02-08T02:04:49.980Z,16.50
2023-02-08T02:07:18.862Z,18.20
2023-02-08T02:09:56.684Z,19.10
2023-02-08T02:12:30.719Z,20.50
2023-02-08T02:14:59.122Z,21.10
2023-02-08T02:17:27.535Z,26.30
2023-02-08T02:20:28.145Z,20.00
2023-02-08T02:23:20.169Z,18.10
2023-02-08T02:26:07.196Z,15.20
2023-02-08T02:29:06.126Z,18.50
2023-02-08T02:31:52.938Z,21.40
2023-02-08T02:34:41.164Z,19.00
2023-02-08T02:37:32.281Z,16.10
2023-02-08T02:40:14.740Z,16.40
2023-02-08T02:43:05.941Z,16.70
2023-02-08T02:45:40.671Z,16.90
2023-02-08T02:48:22.683Z,19.20
2023-02-08T02:51:00.695Z,17.70
2023-02-08T02:53:50.764Z,14.90
2023-02-08T02:56:22.423Z,19.80
2023-02-08T02:58:50.736Z,20.30
2023-02-08T03:01:26.349Z,22.50
2023-02-08T03:03:55.078Z,21.10
2023-02-08T03:06:32.669Z,25.30
2023-02-08T03:09:07.868Z,22.00
2023-02-08T03:11:37.145Z,22.10
2023-02-08T03:14:11.137Z,18.50
2023-02-08T03:17:05.530Z,17.90
2023-02-08T03:20:01.002Z,19.20
2023-02-08T03:22:34.693Z,20.60
2023-02-08T03:25:07.201Z,24.70
2023-02-08T03:27:41.695Z,22.00
2023-02-08T03:30:16.833Z,20.60
2023-02-08T03:33:07.133Z,20.60
2023-02-08T03:35:58.976Z,20.90
2023-02-08T03:38:33.408Z,20.40
2023-02-08T03:41:02.690Z,18.70
2023-02-08T03:43:40.666Z,16.40
2023-02-08T03:46:11.180Z,15.70
2023-02-08T03:48:41.870Z,15.90
2023-02-08T03:51:10.371Z,16.70
2023-02-08T03:53:40.726Z,18.00
2023-02-08T03:56:12.977Z,17.70
2023-02-08T03:58:47.055Z,20.60
2023-02-08T04:01:22.498Z,18.20
2023-02-08T04:03:53.644Z,16.60
2023-02-08T04:06:22.113Z,15.90
2023-02-08T04:08:50.874Z,17.10
2023-02-08T04:11:21.934Z,18.60
2023-02-08T04:13:50.615Z,19.00
2023-02-08T04:16:18.898Z,18.80
2023-02-08T04:18:47.633Z,18.60
2023-02-08T04:21:16.176Z,24.20
2023-02-08T04:23:44.683Z,20.90
2023-02-08T04:26:13.063Z,24.30
2023-02-08T04:28:41.708Z,21.40
2023-02-08T04:31:10.548Z,22.20
2023-02-08T04:33:39.489Z,17.60
2023-02-08T04:36:08.291Z,17.30
2023-02-08T04:38:36.994Z,22.70
2023-02-08T04:41:05.661Z,19.60
2023-02-08T04:43:33.985Z,18.80
2023-02-08T04:46:02.755Z,18.90
2023-02-08T04:48:31.250Z,17.60
2023-02-08T04:51:00.863Z,19.50
2023-02-08T04:53:29.291Z,20.00
2023-02-08T04:55:57.750Z,18.70
2023-02-08T04:58:26.204Z,17.50
2023-02-08T05:00:54.693Z,17.90
2023-02-08T05:03:22.996Z,20.90
2023-02-08T05:06:00.875Z,24.00
2023-02-08T05:08:30.071Z,20.50
2023-02-08T05:10:58.744Z,20.00
2023-02-08T05:13:27.132Z,17.80
2023-02-08T05:15:56.136Z,17.40
2023-02-08T05:18:25.983Z,16.50
2023-02-08T05:20:56.048Z,14.30
2023-02-08T05:23:24.720Z,15.90
2023-02-08T05:25:53.062Z,19.80
2023-02-08T05:28:21.545Z,17.00
2023-02-08T05:30:50.299Z,22.60
2023-02-08T05:33:19.087Z,23.80
2023-02-08T05:35:47.445Z,21.70
2023-02-08T05:38:15.984Z,30.30
2023-02-08T05:40:44.707Z,27.10
2023-02-08T05:43:12.984Z,30.80
2023-02-08T05:45:41.664Z,23.10
2023-02-08T05:48:10.460Z,24.50
2023-02-08T05:50:39.606Z,24.20
2023-02-08T05:53:11.080Z,27.20
2023-02-08T05:55:39.515Z,34.80
2023-02-08T05:58:08.017Z,49.70
2023-02-08T06:00:38.397Z,46.10
2023-02-08T06:03:07.124Z,44.10
2023-02-08T06:05:38.173Z,36.60
2023-02-08T06:08:06.588Z,30.80
2023-02-08T06:10:35.230Z,24.50
2023-02-08T06:13:04.468Z,27.30
2023-02-08T06:15:33.383Z,26.10
2023-02-08T06:18:01.897Z,23.50
2023-02-08T06:20:32.546Z,20.70
2023-02-08T06:23:01.830Z,17.70
2023-02-08T06:25:30.251Z,17.40
2023-02-08T06:27:58.515Z,17.00
2023-02-08T06:30:26.889Z,16.00
2023-02-08T06:32:55.309Z,16.80
2023-02-08T06:35:23.778Z,15.90
2023-02-08T06:37:52.565Z,20.10
2023-02-08T06:40:21.142Z,17.50
2023-02-08T06:42:49.621Z,16.40
2023-02-08T06:45:18.272Z,16.90
2023-02-08T06:47:46.781Z,17.10
2023-02-08T06:50:15.519Z,17.40
2023-02-08T06:52:44.731Z,19.60
2023-02-08T06:55:13.193Z,20.90
2023-02-08T06:57:42.590Z,20.00
2023-02-08T07:00:11.497Z,20.70
2023-02-08T07:02:40.101Z,19.50
2023-02-08T07:05:08.952Z,25.30
2023-02-08T07:07:38.382Z,23.60
2023-02-08T07:10:06.926Z,25.30
2023-02-08T07:12:37.140Z,28.30
2023-02-08T07:15:05.836Z,25.40
2023-02-08T07:17:34.508Z,25.60
2023-02-08T07:20:03.349Z,24.20
2023-02-08T07:22:31.999Z,21.70
2023-02-08T07:25:00.592Z,22.60
2023-02-08T07:27:29.150Z,23.20
2023-02-08T07:29:57.560Z,22.60
2023-02-08T07:32:25.932Z,28.20
2023-02-08T07:34:56.960Z,32.00
2023-02-08T07:37:25.755Z,27.00
2023-02-08T07:39:54.211Z,29.10
2023-02-08T07:42:22.626Z,31.60
2023-02-08T07:44:57.044Z,28.60
2023-02-08T07:47:25.397Z,29.00
2023-02-08T07:49:53.766Z,25.70
2023-02-08T07:52:22.069Z,27.90
2023-02-08T07:54:50.440Z,22.60
2023-02-08T07:57:21.356Z,25.80
2023-02-08T07:59:49.750Z,20.10
2023-02-08T08:02:18.884Z,19.50
2023-02-08T08:04:47.530Z,25.30
2023-02-08T08:07:16.031Z,35.60
2023-02-08T08:09:44.946Z,34.00
2023-02-08T08:12:13.414Z,29.00
2023-02-08T08:14:41.847Z,28.30
2023-02-08T08:17:10.185Z,27.40
2023-02-08T08:19:38.558Z,22.30
2023-02-08T08:22:07.092Z,21.20
2023-02-08T08:24:35.930Z,20.70
2023-02-08T08:27:05.210Z,18.10
2023-02-08T08:29:34.382Z,19.80
2023-02-08T08:32:03.428Z,20.90
2023-02-08T08:34:31.986Z,18.10
2023-02-08T08:37:01.189Z,18.50
2023-02-08T08:39:29.690Z,18.00
2023-02-08T08:41:59.345Z,17.40
2023-02-08T08:44:28.333Z,24.60
2023-02-08T08:46:57.448Z,20.60
2023-02-08T08:49:26.218Z,20.00
2023-02-08T08:51:54.939Z,26.70
2023-02-08T08:54:23.713Z,30.30
2023-02-08T08:56:52.951Z,29.80
2023-02-08T08:59:21.616Z,25.60
2023-02-08T09:01:51.042Z,29.90
2023-02-08T09:04:22.891Z,27.90
2023-02-08T09:06:51.765Z,28.00
2023-02-08T09:09:20.526Z,22.80
2023-02-08T09:11:49.416Z,22.80
2023-02-08T09:14:18.311Z,21.40
2023-02-08T09:16:48.259Z,20.90
2023-02-08T09:19:16.904Z,20.30
2023-02-08T09:21:45.315Z,21.00
2023-02-08T09:24:14.454Z,19.00
2023-02-08T09:26:42.846Z,19.80
2023-02-08T09:29:11.195Z,17.90
2023-02-08T09:31:39.912Z,19.00
2023-02-08T09:34:09.754Z,18.90
2023-02-08T09:36:39.502Z,19.10
2023-02-08T09:39:13.904Z,19.00
2023-02-08T09:41:57.443Z,18.00
2023-02-08T09:44:31.825Z,18.30
2023-02-08T09:47:04.425Z,16.30
2023-02-08T09:49:46.999Z,18.50
2023-02-08T09:52:16.994Z,18.40
2023-02-08T09:54:49.258Z,17.80
2023-02-08T09:57:20.688Z,18.80
2023-02-08T09:59:54.530Z,19.30
2023-02-08T10:02:32.911Z,19.80
2023-02-08T10:05:12.276Z,16.80
2023-02-08T10:07:41.721Z,21.80
2023-02-08T10:10:55.062Z,24.20
2023-02-08T10:13:40.550Z,23.40
2023-02-08T10:16:17.255Z,18.60
2023-02-08T10:18:51.245Z,18.70
2023-02-08T10:21:41.778Z,16.60
2023-02-08T10:24:16.289Z,15.20
2023-02-08T10:26:48.621Z,14.40
2023-02-08T10:29:24.292Z,17.10
2023-02-08T10:31:52.824Z,14.90
2023-02-08T10:34:39.411Z,17.10
2023-02-08T10:37:21.831Z,14.50
2023-02-08T10:39:51.042Z,14.00
2023-02-08T10:42:23.649Z,13.80
2023-02-08T10:44:52.074Z,13.90
2023-02-08T10:47:45.145Z,14.90
2023-02-08T10:50:34.719Z,13.30
2023-02-08T10:53:04.018Z,14.50
2023-02-08T10:55:35.371Z,14.90
2023-02-08T10:58:13.833Z,14.60
2023-02-08T11:00:42.402Z,13.70
2023-02-08T11:03:19.369Z,13.80
2023-02-08T11:05:47.828Z,13.40
2023-02-08T11:08:21.401Z,13.10
2023-02-08T11:10:57.804Z,12.60
2023-02-08T11:13:34.753Z,13.50
2023-02-08T11:16:10.216Z,11.50
2023-02-08T11:18:48.628Z,14.10
2023-02-08T11:21:33.383Z,16.30
2023-02-08T11:24:27.370Z,18.30
2023-02-08T11:26:56.679Z,18.60
2023-02-08T11:29:29.731Z,19.30
2023-02-08T11:32:00.946Z,19.20
2023-02-08T11:34:34.836Z,13.80
2023-02-08T11:37:04.940Z,12.00
2023-02-08T11:39:40.735Z,12.30
2023-02-08T11:42:19.969Z,12.60
2023-02-08T11:44:49.042Z,16.40
2023-02-08T11:47:23.146Z,16.90
2023-02-08T11:49:56.788Z,13.60
2023-02-08T11:52:28.057Z,11.30
2023-02-08T11:55:17.533Z,10.90
2023-02-08T11:58:23.608Z,13.00
2023-02-08T12:01:20.352Z,14.10
2023-02-08T12:03:50.489Z,12.00
2023-02-08T12:06:57.596Z,14.00
2023-02-08T12:09:44.998Z,11.10
2023-02-08T12:12:19.490Z,10.20
2023-02-08T12:15:23.199Z,10.70
2023-02-08T12:18:18.851Z,10.80
2023-02-08T12:20:47.804Z,14.20
2023-02-08T12:23:32.492Z,14.30
2023-02-08T12:26:10.014Z,15.90
2023-02-08T12:29:19.446Z,11.90
2023-02-08T12:32:15.911Z,10.80
2023-02-08T12:35:33.253Z,11.20
2023-02-08T12:38:36.823Z,9.90
2023-02-08T12:41:08.884Z,8.90
2023-02-08T12:43:41.073Z,11.80
2023-02-08T12:46:31.062Z,12.00
2023-02-08T12:49:20.921Z,13.30
2023-02-08T12:52:13.400Z,12.60
2023-02-08T12:54:51.142Z,12.60
2023-02-08T12:57:21.263Z,12.70
2023-02-08T12:59:59.823Z,14.20
2023-02-08T13:02:32.426Z,14.50
2023-02-08T13:05:04.393Z,19.60
2023-02-08T13:07:38.968Z,18.60
2023-02-08T13:10:13.588Z,30.90
2023-02-08T13:12:48.204Z,32.00
2023-02-08T13:15:30.700Z,35.40
2023-02-08T13:18:02.921Z,21.70
2023-02-08T13:20:46.425Z,18.70
2023-02-08T13:23:34.762Z,17.90
2023-02-08T13:26:28.227Z,24.20
2023-02-08T13:29:00.996Z,25.90
2023-02-08T13:34:08.591Z,15.60
2023-02-08T13:36:38.374Z,15.90
2023-02-08T13:39:09.161Z,15.20
2023-02-08T13:41:37.676Z,17.60
2023-02-08T13:44:18.839Z,17.60
2023-02-08T13:46:48.636Z,15.70
2023-02-08T13:49:42.019Z,20.60
2023-02-08T13:52:11.670Z,22.80
2023-02-08T13:54:40.140Z,25.80
2023-02-08T13:57:51.496Z,22.40
2023-02-08T14:00:33.815Z,38.50
2023-02-08T14:03:08.231Z,29.30
2023-02-08T14:05:46.623Z,25.30
2023-02-08T14:08:21.428Z,26.30
2023-02-08T14:11:01.675Z,27.90
2023-02-08T14:13:35.708Z,21.90
2023-02-08T14:16:28.541Z,22.30
2023-02-08T14:19:24.605Z,25.00
2023-02-08T14:22:11.077Z,19.20
2023-02-08T14:24:50.398Z,20.20
2023-02-08T14:27:38.939Z,20.00
2023-02-08T14:30:16.439Z,27.40
2023-02-08T14:32:48.036Z,25.40
2023-02-08T14:35:18.376Z,27.70
2023-02-08T14:37:47.038Z,26.60
2023-02-08T14:40:23.023Z,22.70
2023-02-08T14:42:58.342Z,23.40
2023-02-08T14:45:31.264Z,26.20
2023-02-08T14:48:10.024Z,21.00
2023-02-08T14:50:40.423Z,20.30
2023-02-08T14:53:11.776Z,20.10
2023-02-08T14:55:51.462Z,24.30
2023-02-08T14:58:31.345Z,28.40
2023-02-08T15:01:02.242Z,29.40
2023-02-08T15:03:31.516Z,32.90
2023-02-08T15:06:20.089Z,36.10
2023-02-08T15:08:52.406Z,36.10
2023-02-08T15:11:25.859Z,40.10
2023-02-08T15:13:55.356Z,31.60
2023-02-08T15:16:25.803Z,30.90
2023-02-08T15:18:54.451Z,21.50
2023-02-08T15:21:26.584Z,27.30
2023-02-08T15:24:08.141Z,27.80
2023-02-08T15:26:37.361Z,25.70
2023-02-08T15:29:21.027Z,27.20
2023-02-08T15:31:49.465Z,29.30
2023-02-08T15:34:18.708Z,27.40
2023-02-08T15:36:52.092Z,27.70
2023-02-08T15:39:29.880Z,28.30
2023-02-08T15:41:59.394Z,29.20
2023-02-08T15:44:34.321Z,27.10
2023-02-08T15:47:04.924Z,20.60
2023-02-08T15:49:38.274Z,23.90
2023-02-08T15:52:06.852Z,26.10
2023-02-08T15:54:35.270Z,22.70
2023-02-08T16:01:28.518Z,25.00
2023-02-08T16:03:58.636Z,27.20
2023-02-08T16:06:31.707Z,26.50
2023-02-08T16:09:01.894Z,24.10
2023-02-08T16:11:31.771Z,24.30
2023-02-08T16:14:02.134Z,24.30
2023-02-08T16:16:42.107Z,31.10
2023-02-08T16:19:26.808Z,30.50
2023-02-08T16:21:57.406Z,36.80
2023-02-08T16:24:28.712Z,34.10
2023-02-08T16:26:57.112Z,30.10
2023-02-08T16:29:28.189Z,35.00
2023-02-08T16:32:21.547Z,28.90
2023-02-08T16:34:50.632Z,26.60
2023-02-08T16:37:33.199Z,25.00
2023-02-08T16:40:03.211Z,24.30
2023-02-08T16:42:37.037Z,26.10
2023-02-08T16:45:09.470Z,28.60
2023-02-08T16:47:51.814Z,31.90
2023-02-08T16:50:24.714Z,27.10
2023-02-08T16:53:03.581Z,21.20
2023-02-08T16:55:32.586Z,20.10
2023-02-08T16:58:01.172Z,15.80
2023-02-08T17:00:32.834Z,17.00
2023-02-08T17:03:01.269Z,17.80
2023-02-08T17:05:31.841Z,16.50
2023-02-08T17:08:00.989Z,19.30
2023-02-08T17:10:31.676Z,21.20
2023-02-08T17:13:19.788Z,19.20
2023-02-08T17:15:50.384Z,23.70
2023-02-08T17:18:20.054Z,25.10
2023-02-08T17:20:57.658Z,29.90
2023-02-08T17:23:26.662Z,37.10
2023-02-08T17:25:55.264Z,33.80
2023-02-08T17:28:23.780Z,30.80
2023-02-08T17:30:53.572Z,25.30
2023-02-08T17:33:22.004Z,26.30
2023-02-08T17:35:51.774Z,21.80
2023-02-08T17:38:20.722Z,20.40
2023-02-08T17:40:49.049Z,19.30
2023-02-08T17:43:17.577Z,17.50
2023-02-08T17:45:46.487Z,18.10
2023-02-08T17:48:15.567Z,15.50
2023-02-08T17:50:47.201Z,15.70
2023-02-08T17:53:16.132Z,15.00
2023-02-08T17:55:45.941Z,17.20
2023-02-08T17:58:14.594Z,16.30
2023-02-08T18:00:43.097Z,16.90
2023-02-08T18:03:12.346Z,18.20
2023-02-08T18:05:40.846Z,17.40
2023-02-08T18:08:09.453Z,20.60
2023-02-08T18:10:39.619Z,22.40
2023-02-08T18:13:08.159Z,31.00
2023-02-08T18:15:36.524Z,29.00
2023-02-08T18:18:05.640Z,27.00
2023-02-08T18:20:34.232Z,29.60
2023-02-08T18:23:02.874Z,32.50
2023-02-08T18:25:31.574Z,28.40
2023-02-08T18:28:00.618Z,30.70
2023-02-08T18:30:29.337Z,23.10
2023-02-08T18:32:57.759Z,17.30
2023-02-08T18:35:26.766Z,14.70
2023-02-08T18:37:55.186Z,15.30
2023-02-08T18:40:23.895Z,16.10
2023-02-08T18:42:52.181Z,15.10
2023-02-08T18:45:20.961Z,17.70
2023-02-08T18:47:49.269Z,18.20
2023-02-08T18:50:18.000Z,16.30
2023-02-08T18:52:48.218Z,18.00
2023-02-08T18:55:16.778Z,15.90
2023-02-08T18:57:47.381Z,16.00
2023-02-08T19:00:16.372Z,14.60
2023-02-08T19:02:46.341Z,14.70
2023-02-08T19:05:14.626Z,13.10
2023-02-08T19:07:43.265Z,15.60
2023-02-08T19:10:11.632Z,27.60
2023-02-08T19:12:40.191Z,39.50
2023-02-08T19:15:09.627Z,33.30
2023-02-08T19:17:38.130Z,44.20
2023-02-08T19:20:07.391Z,43.40
2023-02-08T19:22:36.038Z,41.10
2023-02-08T19:25:04.796Z,31.90
2023-02-08T19:27:33.661Z,22.90
2023-02-08T19:30:02.070Z,20.60
2023-02-08T19:32:30.997Z,15.50
2023-02-08T19:34:59.678Z,16.20
2023-02-08T19:37:28.383Z,14.60
2023-02-08T19:39:57.219Z,15.60
2023-02-08T19:42:25.743Z,15.10
2023-02-08T19:44:54.180Z,15.60
2023-02-08T19:47:43.335Z,17.00
2023-02-08T19:50:14.337Z,15.10
2023-02-08T19:52:43.767Z,13.10
2023-02-08T19:55:12.169Z,16.40
2023-02-08T19:57:40.633Z,14.80
2023-02-08T20:00:22.550Z,17.50
2023-02-08T20:02:52.424Z,16.00
2023-02-08T20:05:21.037Z,18.60
2023-02-08T20:07:49.316Z,24.30
2023-02-08T20:10:17.993Z,26.00
2023-02-08T20:12:47.209Z,20.80
2023-02-08T20:15:16.022Z,20.60
2023-02-08T20:17:45.929Z,19.30
2023-02-08T20:20:14.749Z,19.30
2023-02-08T20:22:43.188Z,24.60
2023-02-08T20:25:11.759Z,26.10
2023-02-08T20:27:40.230Z,21.20
2023-02-08T20:30:09.407Z,21.60
2023-02-08T20:32:40.087Z,22.20
2023-02-08T20:35:08.752Z,17.40
2023-02-08T20:37:38.377Z,17.30
2023-02-08T20:40:07.269Z,14.00
2023-02-08T20:42:36.350Z,21.30
2023-02-08T20:45:05.658Z,17.40
2023-02-08T20:47:46.442Z,20.10
2023-02-08T20:50:19.018Z,17.90
2023-02-08T20:52:49.300Z,20.60
2023-02-08T20:55:17.867Z,19.30
2023-02-08T20:57:46.335Z,20.20
2023-02-08T21:00:15.078Z,26.20
2023-02-08T21:02:43.577Z,31.70
2023-02-08T21:05:11.992Z,31.60
2023-02-08T21:07:41.367Z,31.00
2023-02-08T21:10:09.818Z,23.40
2023-02-08T21:12:38.232Z,20.60
2023-02-08T21:15:07.621Z,19.80
2023-02-08T21:17:41.290Z,17.70
2023-02-08T21:20:10.330Z,16.10
2023-02-08T21:22:39.503Z,17.60
2023-02-08T21:25:09.536Z,17.70
2023-02-08T21:27:38.421Z,16.60
2023-02-08T21:30:07.594Z,17.70
2023-02-08T21:32:36.136Z,16.50
2023-02-08T21:35:05.161Z,17.10
2023-02-08T21:37:34.248Z,16.90
2023-02-08T21:40:02.848Z,17.90
2023-02-08T21:42:31.360Z,17.40
2023-02-08T21:44:59.884Z,20.30
2023-02-08T21:47:28.214Z,25.30
2023-02-08T21:50:15.591Z,26.50
2023-02-08T21:53:03.498Z,22.30
2023-02-08T21:55:32.196Z,17.30
2023-02-08T21:58:00.493Z,20.50
2023-02-08T22:00:28.896Z,19.70
2023-02-08T22:02:57.243Z,16.90
2023-02-08T22:05:44.773Z,17.20
2023-02-08T22:08:13.370Z,15.80
2023-02-08T22:10:50.140Z,15.00
2023-02-08T22:13:25.833Z,13.30
2023-02-08T22:15:54.394Z,15.10
2023-02-08T22:18:22.886Z,15.80
2023-02-08T22:20:54.738Z,17.90
2023-02-08T22:23:23.114Z,19.70
2023-02-08T22:25:53.055Z,18.50
2023-02-08T22:28:21.647Z,20.70
2023-02-08T22:30:50.213Z,22.80
2023-02-08T22:33:18.527Z,22.60
2023-02-08T22:35:46.909Z,24.20
2023-02-08T22:38:15.215Z,19.60
2023-02-08T22:40:44.385Z,19.50
2023-02-08T22:43:13.076Z,21.70
2023-02-08T22:45:42.603Z,26.30
2023-02-08T22:48:11.120Z,26.00
2023-02-08T22:50:39.542Z,33.50
2023-02-08T22:53:08.220Z,28.90
2023-02-08T22:55:36.758Z,30.80
2023-02-08T22:58:05.487Z,25.70
2023-02-08T23:00:33.822Z,24.70
2023-02-08T23:03:02.208Z,23.00
2023-02-08T23:05:30.502Z,23.00
2023-02-08T23:07:58.917Z,21.20
2023-02-08T23:10:27.318Z,18.10
2023-02-08T23:12:56.001Z,22.10
2023-02-08T23:15:24.406Z,19.30
2023-02-08T23:17:53.121Z,24.50
2023-02-08T23:20:21.579Z,18.20
2023-02-08T23:22:49.995Z,19.70
2023-02-08T23:25:18.510Z,22.00
2023-02-08T23:27:47.026Z,21.50
2023-02-08T23:30:15.485Z,18.90
2023-02-08T23:32:44.350Z,19.60
2023-02-08T23:35:12.736Z,18.60
2023-02-08T23:37:41.483Z,21.00
2023-02-08T23:40:11.024Z,19.60
2023-02-08T23:42:40.237Z,19.50
2023-02-08T23:45:08.833Z,19.40
2023-02-08T23:47:38.168Z,19.60
2023-02-08T23:50:07.584Z,23.30
2023-02-08T23:52:37.057Z,24.70
2023-02-08T23:55:06.052Z,25.00
2023-02-08T23:57:35.682Z,22.70
